Costa Marques, Brazil
Current Conditions -  °F | °C
As of 11:00 AM on Wednesday 22 Oct 2014 (Local Time) from SLMG Reporting Station
Few Clouds Few Clouds  
Wind Chill: 91°   Ceiling: Unl
Heat Index: 100°   Visibility: 5mi
Dew Point: 73°   Wind: 7mph
Humidity: 55%   Direction: 270°W
Pressure: 29.91"   Gusts: NA
Location:  12.45°S, 64.23°W
Report Text: SLMG 221500Z 27006KT 8000 FEW017 33/23 Q1013
Loading
Personal Weather Stations






























Interactive Weather Map New forecast layout! Learn more

10-Day Weather Forecast

Advertisements
Track Severe Weather on mobile